Time;durP1;ratioP1;P1;durP2;ratioP2;P2;SDS_P1;SDS_P2;PMS_P1;PMS_P2;Temp;Humidity;BMP_temperature;BMP_pressure;BME280_temperature;BME280_humidity;BME280_pressure;Samples;Min_cycle;Max_cycle;Signal;HPM_P1;HPM_P2
2022/04/08 00:01:02;;;;;;;;;;;;;;;5.39;100.00;97218.16;5059758;28;19932;-75
2022/04/08 00:03:29;;;;;;;;;;;;;;;5.14;100.00;97203.38;5077576;28;19924;-75
2022/04/08 00:05:58;;;;;;;;;;;;;;;5.44;100.00;97217.66;5059412;28;19925;-75
2022/04/08 00:08:25;;;;;;;;;;;;;;;5.25;100.00;97218.53;5060010;28;19951;-75
2022/04/08 00:10:52;;;;;;;;;;;;;;;5.31;100.00;97213.25;5077323;28;20020;-75
2022/04/08 00:13:19;;;;;;;;;;;;;;;5.57;100.00;97209.44;5058958;28;20011;-75
2022/04/08 00:15:46;;;;;;;;;;;;;;;5.36;100.00;97213.50;5077259;28;19924;-75
2022/04/08 00:18:13;;;;;;;;;;;;;;;5.33;100.00;97205.28;5075934;28;20329;-75
2022/04/08 00:20:40;;;;;;;;;;;;;;;5.34;100.00;97202.09;5086181;28;19928;-75
2022/04/08 00:23:07;;;;;;;;;;;;;;;5.31;100.00;97214.03;5097291;28;20015;-75
2022/04/08 00:25:34;;;;;;;;;;;;;;;5.20;100.00;97196.09;5097078;28;20313;-75
2022/04/08 00:28:01;;;;;;;;;;;;;;;5.46;100.00;97209.69;5096881;28;19924;-75
2022/04/08 00:30:28;;;;;;;;;;;;;;;5.39;100.00;97209.09;5062527;28;19946;-75
2022/04/08 00:32:58;;;;;;;;;;;;;;;5.34;100.00;97224.25;5078776;28;19924;-75
2022/04/08 00:35:26;;;;;;;;;;;;;;;5.48;100.00;97210.03;5078671;28;19959;-75
2022/04/08 00:37:53;;;;;;;;;;;;;;;5.44;100.00;97228.75;5078641;28;19969;-75
2022/04/08 00:40:20;;;;;;;;;;;;;;;5.21;100.00;97209.53;5078438;28;19924;-75
2022/04/08 00:42:46;;;;;;;;;;;;;;;5.23;100.00;97228.47;5078017;28;20023;-75
2022/04/08 00:45:13;;;;;;;;;;;;;;;5.27;100.00;97234.72;5095932;28;19924;-74
2022/04/08 00:47:41;;;;;;;;;;;;;;;5.28;100.00;97225.97;5095986;28;19924;-75
2022/04/08 00:50:09;;;;;;;;;;;;;;;5.29;100.00;97222.00;5112398;28;19977;-75
2022/04/08 00:52:37;;;;;;;;;;;;;;;5.15;100.00;97238.94;5096691;28;19928;-75
2022/04/08 00:55:05;;;;;;;;;;;;;;;5.12;100.00;97236.25;5096853;28;19924;-75
2022/04/08 00:57:32;;;;;;;;;;;;;;;5.38;100.00;97236.00;5078337;28;19956;-75
2022/04/08 01:00:03;;;;;;;;;;;;;;;5.34;100.00;97229.78;5096466;28;19958;-75
2022/04/08 01:02:31;;;;;;;;;;;;;;;5.24;100.00;97207.91;5078552;28;19970;-75
2022/04/08 01:04:58;;;;;;;;;;;;;;;5.34;100.00;97198.53;5096311;28;19924;-75
2022/04/08 01:07:25;;;;;;;;;;;;;;;5.27;100.00;97202.25;5078645;28;19931;-75
2022/04/08 01:09:52;;;;;;;;;;;;;;;5.31;100.00;97207.72;5112563;28;20011;-75
2022/04/08 01:12:19;;;;;;;;;;;;;;;5.29;100.00;97205.38;5061474;28;19955;-75
2022/04/08 01:14:46;;;;;;;;;;;;;;;5.37;100.00;97217.84;5078282;28;19958;-75
2022/04/08 01:17:13;;;;;;;;;;;;;;;5.32;100.00;97220.34;5096263;28;19924;-75
2022/04/08 01:19:41;;;;;;;;;;;;;;;5.22;100.00;97221.38;5096440;28;20347;-75
2022/04/08 01:22:08;;;;;;;;;;;;;;;5.21;100.00;97215.06;5078043;28;19950;-75
2022/04/08 01:24:36;;;;;;;;;;;;;;;5.41;100.00;97215.75;5111688;28;19934;-75
2022/04/08 01:27:03;;;;;;;;;;;;;;;5.19;100.00;97211.97;5095813;28;19924;-75
2022/04/08 01:29:30;;;;;;;;;;;;;;;5.24;100.00;97214.19;5103222;28;19925;-75
2022/04/08 01:31:57;;;;;;;;;;;;;;;5.13;100.00;97215.66;5075637;28;19924;-75
2022/04/08 01:34:24;;;;;;;;;;;;;;;5.01;100.00;97213.59;5075606;28;19924;-75
2022/04/08 01:36:51;;;;;;;;;;;;;;;5.16;100.00;97215.59;5075562;28;19924;-75
2022/04/08 01:39:18;;;;;;;;;;;;;;;5.13;100.00;97212.91;5057402;28;19975;-75
2022/04/08 01:41:45;;;;;;;;;;;;;;;5.24;100.00;97211.44;5090578;28;19999;-75
2022/04/08 01:44:12;;;;;;;;;;;;;;;5.22;100.00;97219.41;5075450;28;20009;-75
2022/04/08 01:46:39;;;;;;;;;;;;;;;5.10;100.00;97217.28;5057312;28;19925;-75
2022/04/08 01:49:07;;;;;;;;;;;;;;;5.14;100.00;97209.69;5055642;28;20377;-75
2022/04/08 01:51:34;;;;;;;;;;;;;;;5.21;100.00;97215.06;5054260;28;19925;-75
2022/04/08 01:54:02;;;;;;;;;;;;;;;5.10;100.00;97206.22;5054917;28;19929;-75
2022/04/08 01:56:29;;;;;;;;;;;;;;;5.14;100.00;97219.97;5054569;28;19925;-75
2022/04/08 01:58:56;;;;;;;;;;;;;;;5.17;100.00;97214.38;5053711;28;19935;-75
2022/04/08 02:01:23;;;;;;;;;;;;;;;5.00;100.00;97209.25;5077847;28;19929;-75
2022/04/08 02:03:50;;;;;;;;;;;;;;;4.89;100.00;97215.03;5053688;28;19925;-75
2022/04/08 02:06:19;;;;;;;;;;;;;;;5.06;100.00;97210.28;5055045;28;19924;-74
2022/04/08 02:08:47;;;;;;;;;;;;;;;5.04;100.00;97212.72;5053573;28;19963;-75
2022/04/08 02:11:13;;;;;;;;;;;;;;;5.01;100.00;97214.34;5049754;28;19972;-75
2022/04/08 02:13:40;;;;;;;;;;;;;;;5.06;100.00;97221.34;5050130;28;19977;-75
2022/04/08 02:16:07;;;;;;;;;;;;;;;5.24;100.00;97216.19;5037189;28;19929;-75
2022/04/08 02:18:34;;;;;;;;;;;;;;;5.12;100.00;97217.66;5054873;28;19929;-75
2022/04/08 02:21:03;;;;;;;;;;;;;;;5.08;100.00;97239.09;5054925;28;19925;-75
2022/04/08 02:23:31;;;;;;;;;;;;;;;5.18;100.00;97231.78;5054485;28;20302;-75
2022/04/08 02:25:58;;;;;;;;;;;;;;;5.21;100.00;97226.13;5054507;28;19940;-75
2022/04/08 02:28:25;;;;;;;;;;;;;;;5.30;100.00;97225.56;5054619;28;20335;-75
2022/04/08 02:30:53;;;;;;;;;;;;;;;5.09;100.00;97229.59;5054733;28;19931;-75
2022/04/08 02:33:20;;;;;;;;;;;;;;;5.21;100.00;97226.13;5054274;28;20019;-75
2022/04/08 02:35:47;;;;;;;;;;;;;;;5.57;100.00;97237.13;5053049;28;20028;-75
2022/04/08 02:38:14;;;;;;;;;;;;;;;5.46;100.00;97220.00;5052947;28;19931;-75
2022/04/08 02:40:41;;;;;;;;;;;;;;;5.36;100.00;97224.56;5054380;28;19925;-75
2022/04/08 02:43:09;;;;;;;;;;;;;;;5.49;100.00;97231.00;5053028;28;19932;-75
2022/04/08 02:45:36;;;;;;;;;;;;;;;5.36;100.00;97227.34;5038859;28;20271;-75
2022/04/08 02:48:03;;;;;;;;;;;;;;;5.30;100.00;97218.00;5032820;28;20352;-75
2022/04/08 02:50:31;;;;;;;;;;;;;;;5.51;100.00;97220.25;5034875;28;19925;-75
2022/04/08 02:52:58;;;;;;;;;;;;;;;5.75;100.00;97220.84;5036007;28;19967;-75
2022/04/08 02:55:26;;;;;;;;;;;;;;;5.67;100.00;97240.81;5052824;28;19939;-75
2022/04/08 02:57:53;;;;;;;;;;;;;;;5.67;100.00;97235.28;5054106;28;19925;-75
2022/04/08 03:00:20;;;;;;;;;;;;;;;5.85;100.00;97230.09;5054209;28;19924;-75
2022/04/08 03:02:48;;;;;;;;;;;;;;;5.79;100.00;97238.13;5054052;28;19928;-75
2022/04/08 03:05:15;;;;;;;;;;;;;;;6.02;100.00;97245.47;5053853;28;20338;-75
2022/04/08 03:07:43;;;;;;;;;;;;;;;5.93;100.00;97248.09;5052464;28;19931;-75
2022/04/08 03:10:10;;;;;;;;;;;;;;;6.28;100.00;97250.72;5054017;28;19925;-76
2022/04/08 03:12:37;;;;;;;;;;;;;;;6.08;100.00;97250.06;5053955;28;19929;-75
2022/04/08 03:15:05;;;;;;;;;;;;;;;6.06;100.00;97262.81;5053850;28;19931;-75
2022/04/08 03:17:32;;;;;;;;;;;;;;;6.16;100.00;97262.53;5053322;28;20334;-75
2022/04/08 03:19:59;;;;;;;;;;;;;;;5.75;100.00;97264.38;5052498;28;19925;-75
2022/04/08 03:22:27;;;;;;;;;;;;;;;5.68;100.00;97264.56;5077720;28;19929;-75
2022/04/08 03:24:55;;;;;;;;;;;;;;;6.06;100.00;97274.66;5049312;28;20345;-75
2022/04/08 03:27:22;;;;;;;;;;;;;;;6.16;100.00;97268.06;5051627;28;19925;-76
2022/04/08 03:29:49;;;;;;;;;;;;;;;6.29;100.00;97270.88;5052594;28;19925;-75
2022/04/08 03:32:16;;;;;;;;;;;;;;;6.20;100.00;97271.53;5053602;28;19924;-76
2022/04/08 03:34:43;;;;;;;;;;;;;;;5.93;100.00;97270.28;5039960;28;20287;-75
2022/04/08 03:37:10;;;;;;;;;;;;;;;6.03;100.00;97263.69;5049665;28;19925;-75
2022/04/08 03:39:37;;;;;;;;;;;;;;;6.12;100.00;97269.38;5052086;28;19925;-75
2022/04/08 03:42:06;;;;;;;;;;;;;;;5.98;100.00;97262.22;5053494;28;19925;-75
2022/04/08 03:44:33;;;;;;;;;;;;;;;5.93;100.00;97273.03;5053677;28;19928;-75
2022/04/08 03:47:00;;;;;;;;;;;;;;;5.97;100.00;97270.97;5052086;28;19960;-75
2022/04/08 03:49:27;;;;;;;;;;;;;;;5.97;100.00;97271.75;5053498;28;19925;-75
2022/04/08 03:51:54;;;;;;;;;;;;;;;6.22;100.00;97271.09;5053262;28;19968;-75
2022/04/08 03:54:22;;;;;;;;;;;;;;;6.55;100.00;97272.53;5053397;28;19931;-75
2022/04/08 03:56:49;;;;;;;;;;;;;;;6.75;100.00;97275.91;5053393;28;19931;-76
2022/04/08 03:59:16;;;;;;;;;;;;;;;6.81;100.00;97280.50;5053418;28;19925;-76
2022/04/08 04:01:43;;;;;;;;;;;;;;;6.87;100.00;97277.94;5051923;28;20012;-75
2022/04/08 04:04:10;;;;;;;;;;;;;;;6.94;100.00;97266.59;5052073;28;20427;-76
2022/04/08 04:06:38;;;;;;;;;;;;;;;6.97;100.00;97265.72;5072940;28;19929;-76
2022/04/08 04:09:05;;;;;;;;;;;;;;;6.89;100.00;97273.50;5033465;28;19971;-76
2022/04/08 04:11:33;;;;;;;;;;;;;;;6.92;100.00;97274.63;5038114;28;20024;-75
2022/04/08 04:14:00;;;;;;;;;;;;;;;6.39;100.00;97275.38;5052015;28;19924;-75
2022/04/08 04:16:27;;;;;;;;;;;;;;;6.05;100.00;97269.56;5052015;28;19925;-75
2022/04/08 04:18:54;;;;;;;;;;;;;;;6.27;100.00;97267.78;5054015;28;19932;-75
2022/04/08 04:21:21;;;;;;;;;;;;;;;6.47;100.00;97271.16;5056493;28;19924;-75
2022/04/08 04:23:48;;;;;;;;;;;;;;;6.13;100.00;97277.28;5056875;28;19932;-75
2022/04/08 04:26:15;;;;;;;;;;;;;;;5.86;100.00;97265.69;5055693;28;19960;-75
2022/04/08 04:28:42;;;;;;;;;;;;;;;5.70;100.00;97273.22;5055866;28;20278;-75
2022/04/08 04:31:10;;;;;;;;;;;;;;;5.42;100.00;97281.00;5054291;28;19924;-75
2022/04/08 04:33:37;;;;;;;;;;;;;;;5.19;100.00;97281.19;5036404;28;19929;-75
2022/04/08 04:36:04;;;;;;;;;;;;;;;5.28;100.00;97280.56;5035575;28;19972;-75
2022/04/08 04:38:31;;;;;;;;;;;;;;;5.57;100.00;97276.69;5046107;28;19988;-75
2022/04/08 04:40:58;;;;;;;;;;;;;;;5.55;100.00;97273.59;5056738;28;20610;-75
2022/04/08 04:43:25;;;;;;;;;;;;;;;5.52;100.00;97263.38;5088828;28;20016;-75
2022/04/08 04:45:52;;;;;;;;;;;;;;;5.57;100.00;97268.38;5055300;28;20014;-75
2022/04/08 04:48:19;;;;;;;;;;;;;;;5.61;100.00;97265.53;5094287;28;19924;-75
2022/04/08 04:50:46;;;;;;;;;;;;;;;5.55;100.00;97273.59;5096798;28;19924;-75
2022/04/08 04:53:13;;;;;;;;;;;;;;;5.53;100.00;97264.91;5096413;28;19924;-75
2022/04/08 04:55:40;;;;;;;;;;;;;;;5.54;100.00;97255.38;5095441;28;20367;-75
2022/04/08 04:58:07;;;;;;;;;;;;;;;5.54;100.00;97260.91;5096645;28;20341;-75
2022/04/08 05:00:34;;;;;;;;;;;;;;;5.47;100.00;97254.78;5078582;28;20363;-75
2022/04/08 05:03:01;;;;;;;;;;;;;;;5.26;100.00;97250.53;5077968;28;19974;-75
2022/04/08 05:05:28;;;;;;;;;;;;;;;5.17;100.00;97257.88;5081346;28;19929;-75
2022/04/08 05:07:55;;;;;;;;;;;;;;;4.65;100.00;97259.88;5058677;28;19924;-75
2022/04/08 05:10:22;;;;;;;;;;;;;;;4.79;100.00;97249.25;5094939;28;19931;-75
2022/04/08 05:12:49;;;;;;;;;;;;;;;4.93;100.00;97257.25;5094491;28;19952;-75
2022/04/08 05:15:16;;;;;;;;;;;;;;;5.04;100.00;97254.25;5088098;28;19970;-75
2022/04/08 05:17:45;;;;;;;;;;;;;;;5.02;100.00;97257.44;5094385;28;19970;-75
2022/04/08 05:20:12;;;;;;;;;;;;;;;5.00;100.00;97248.00;5096356;28;20010;-75
2022/04/08 05:22:41;;;;;;;;;;;;;;;4.87;100.00;97252.66;5084346;28;19925;-75
2022/04/08 05:25:08;;;;;;;;;;;;;;;4.52;100.00;97251.44;5079679;28;19935;-75
2022/04/08 05:27:41;;;;;;;;;;;;;;;4.71;100.00;97253.38;5076444;28;19931;-75
2022/04/08 05:30:09;;;;;;;;;;;;;;;4.82;100.00;97253.16;5074848;28;20456;-75
2022/04/08 05:32:36;;;;;;;;;;;;;;;4.77;100.00;97250.91;5073948;28;19924;-75
2022/04/08 05:35:04;;;;;;;;;;;;;;;4.79;100.00;97254.78;5091333;28;19931;-75
2022/04/08 05:37:31;;;;;;;;;;;;;;;4.70;100.00;97253.81;5057712;28;20023;-75
2022/04/08 05:39:57;;;;;;;;;;;;;;;4.45;100.00;97253.56;5057692;28;19932;-75
2022/04/08 05:42:25;;;;;;;;;;;;;;;4.56;100.00;97254.88;5057780;28;19956;-75
2022/04/08 05:44:52;;;;;;;;;;;;;;;4.43;100.00;97253.19;5071943;28;20371;-75
2022/04/08 05:47:19;;;;;;;;;;;;;;;4.04;100.00;97253.97;5076153;28;19925;-74
2022/04/08 05:49:46;;;;;;;;;;;;;;;3.92;100.00;97251.06;5075162;28;19947;-74
2022/04/08 05:52:13;;;;;;;;;;;;;;;4.01;100.00;97249.31;5075454;28;20001;-75
2022/04/08 05:54:43;;;;;;;;;;;;;;;4.40;100.00;97257.59;5094589;28;20319;-75
2022/04/08 05:57:10;;;;;;;;;;;;;;;3.91;100.00;97255.78;5077546;28;19947;-75
2022/04/08 05:59:39;;;;;;;;;;;;;;;3.70;100.00;97258.94;5063049;28;20388;-75
2022/04/08 06:02:09;;;;;;;;;;;;;;;3.84;100.00;97253.16;5085306;28;19927;-74
2022/04/08 06:04:36;;;;;;;;;;;;;;;4.52;100.00;97270.78;5073829;28;19925;-75
2022/04/08 06:07:03;;;;;;;;;;;;;;;5.08;100.00;97263.22;5074945;28;19924;-75
2022/04/08 06:09:30;;;;;;;;;;;;;;;5.60;100.00;97259.19;5074885;28;19960;-75
2022/04/08 06:11:57;;;;;;;;;;;;;;;5.92;100.00;97252.09;5057056;28;19956;-75
2022/04/08 06:14:26;;;;;;;;;;;;;;;6.33;100.00;97244.59;5074950;28;19970;-75
2022/04/08 06:16:53;;;;;;;;;;;;;;;6.40;100.00;97249.19;5074549;28;19925;-75
2022/04/08 06:19:20;;;;;;;;;;;;;;;6.53;100.00;97244.44;5056890;28;19924;-75
2022/04/08 06:21:47;;;;;;;;;;;;;;;6.88;100.00;97244.19;5040438;28;20299;-76
2022/04/08 06:24:14;;;;;;;;;;;;;;;7.31;100.00;97246.44;5056700;28;20379;-76
2022/04/08 06:26:42;;;;;;;;;;;;;;;7.48;100.00;97244.31;5076262;28;19925;-76
2022/04/08 06:29:09;;;;;;;;;;;;;;;6.76;100.00;97252.47;5076265;28;20328;-76
2022/04/08 06:31:36;;;;;;;;;;;;;;;6.51;100.00;97244.13;5056574;28;19924;-76
2022/04/08 06:34:03;;;;;;;;;;;;;;;7.13;100.00;97246.22;5076372;28;19924;-76
2022/04/08 06:36:30;;;;;;;;;;;;;;;7.95;100.00;97243.06;5074237;28;20280;-76
2022/04/08 06:38:57;;;;;;;;;;;;;;;8.82;100.00;97236.38;5075544;28;20322;-77
2022/04/08 06:41:24;;;;;;;;;;;;;;;9.67;100.00;97235.78;5078652;28;19924;-77
2022/04/08 06:43:51;;;;;;;;;;;;;;;10.61;100.00;97233.72;5085192;28;20326;-77
2022/04/08 06:46:21;;;;;;;;;;;;;;;11.51;100.00;97222.25;5091308;28;19932;-77
2022/04/08 06:48:48;;;;;;;;;;;;;;;12.34;100.00;97210.84;5093583;28;20088;-77
2022/04/08 06:51:16;;;;;;;;;;;;;;;13.10;100.00;97212.78;5076069;28;20289;-77
2022/04/08 06:53:43;;;;;;;;;;;;;;;13.63;100.00;97201.38;5076229;28;20252;-75
2022/04/08 06:56:13;;;;;;;;;;;;;;;14.01;100.00;97215.19;5059645;28;20336;-78
2022/04/08 06:58:40;;;;;;;;;;;;;;;14.36;100.00;97196.25;5057491;28;20317;-77
2022/04/08 07:01:08;;;;;;;;;;;;;;;14.64;100.00;97200.16;5087229;28;20005;-76
2022/04/08 07:04:10;;;;;;;;;;;;;;;14.91;100.00;97191.22;5071030;28;19958;-76
2022/04/08 07:07:13;;;;;;;;;;;;;;;15.33;100.00;97191.34;5093159;28;19924;-76
2022/04/08 07:10:42;;;;;;;;;;;;;;;15.46;100.00;97194.56;5087901;28;19980;-77
2022/04/08 07:13:13;;;;;;;;;;;;;;;15.93;100.00;97178.97;5074398;28;19932;-77
2022/04/08 07:16:02;;;;;;;;;;;;;;;16.54;100.00;97171.56;5084520;28;19924;-76
2022/04/08 07:18:29;;;;;;;;;;;;;;;15.05;100.00;97172.69;5090916;28;19932;-76
2022/04/08 07:20:56;;;;;;;;;;;;;;;14.44;100.00;97177.69;5090457;28;20508;-76
2022/04/08 07:23:23;;;;;;;;;;;;;;;13.03;100.00;97179.53;5091086;28;19932;-75
2022/04/08 07:25:50;;;;;;;;;;;;;;;13.35;100.00;97180.53;5090199;28;20379;-76
2022/04/08 07:28:18;;;;;;;;;;;;;;;13.61;100.00;97175.84;5090091;28;19925;-76
2022/04/08 07:30:45;;;;;;;;;;;;;;;14.71;100.00;97177.22;5087058;28;20395;-76
2022/04/08 07:33:12;;;;;;;;;;;;;;;15.66;100.00;97169.06;5090029;28;20624;-76
2022/04/08 07:35:39;;;;;;;;;;;;;;;16.76;100.00;97168.03;5089777;28;20377;-77
2022/04/08 07:38:09;;;;;;;;;;;;;;;17.27;100.00;97156.25;5090073;28;20019;-76
2022/04/08 07:40:41;;;;;;;;;;;;;;;15.56;100.00;97166.97;5076920;28;20340;-76
2022/04/08 07:43:09;;;;;;;;;;;;;;;13.64;100.00;97177.69;5088388;28;20397;-75
2022/04/08 07:45:36;;;;;;;;;;;;;;;12.38;100.00;97189.03;5089660;28;20294;-76
2022/04/08 07:48:03;;;;;;;;;;;;;;;12.58;100.00;97203.19;5071492;28;19924;-75
2022/04/08 07:50:32;;;;;;;;;;;;;;;13.39;100.00;97175.53;5037357;28;20386;-76
2022/04/08 07:52:59;;;;;;;;;;;;;;;14.54;100.00;97181.88;5086255;28;19981;-75
2022/04/08 07:55:27;;;;;;;;;;;;;;;14.08;100.00;97167.03;5089723;28;19924;-76
2022/04/08 07:57:55;;;;;;;;;;;;;;;15.71;100.00;97173.19;5083322;28;20456;-78
2022/04/08 08:00:25;;;;;;;;;;;;;;;16.15;100.00;97167.81;5055585;28;20019;-78
2022/04/08 08:02:52;;;;;;;;;;;;;;;16.90;100.00;97173.44;5079859;28;20439;-78
2022/04/08 08:05:20;;;;;;;;;;;;;;;16.84;100.00;97171.88;5075927;28;19932;-78
2022/04/08 08:07:47;;;;;;;;;;;;;;;16.02;100.00;97168.25;5042648;28;19931;-77
2022/04/08 08:10:15;;;;;;;;;;;;;;;15.79;100.00;97169.44;5094381;28;19970;-76
2022/04/08 08:12:42;;;;;;;;;;;;;;;14.71;100.00;97182.09;5075637;28;20020;-79
2022/04/08 08:15:10;;;;;;;;;;;;;;;14.91;100.00;97179.97;5059011;28;19956;-77
2022/04/08 08:17:38;;;;;;;;;;;;;;;14.26;100.00;97180.81;5093067;28;19924;-77
2022/04/08 08:20:06;;;;;;;;;;;;;;;14.97;100.00;97192.03;5073192;28;19924;-77
2022/04/08 08:22:35;;;;;;;;;;;;;;;15.10;100.00;97175.53;5091656;28;19928;-77
2022/04/08 08:25:03;;;;;;;;;;;;;;;16.17;100.00;97177.31;5092522;28;19928;-77
2022/04/08 08:27:43;;;;;;;;;;;;;;;15.76;100.00;97176.06;5091643;28;19928;-76
2022/04/08 08:30:11;;;;;;;;;;;;;;;14.95;100.00;97186.13;5092129;28;19931;-77
2022/04/08 08:32:39;;;;;;;;;;;;;;;15.39;100.00;97175.28;5073557;28;20010;-77
2022/04/08 08:35:07;;;;;;;;;;;;;;;14.67;100.00;97171.06;5092212;28;19924;-77
2022/04/08 08:37:35;;;;;;;;;;;;;;;13.93;100.00;97172.72;5092263;28;20350;-77
2022/04/08 08:40:03;;;;;;;;;;;;;;;14.22;100.00;97186.59;5091240;28;20017;-80
2022/04/08 08:42:31;;;;;;;;;;;;;;;14.54;100.00;97195.94;5091821;28;19924;-75
2022/04/08 08:44:59;;;;;;;;;;;;;;;15.07;100.00;97195.47;5076609;28;19938;-77
2022/04/08 08:47:29;;;;;;;;;;;;;;;15.24;100.00;97185.88;5077379;28;19928;-77
2022/04/08 08:49:57;;;;;;;;;;;;;;;14.88;100.00;97185.81;5095758;28;19997;-80
2022/04/08 08:52:24;;;;;;;;;;;;;;;13.80;100.00;97205.97;5095884;28;20272;-79
2022/04/08 08:54:52;;;;;;;;;;;;;;;14.41;100.00;97201.16;5094449;28;19928;-80
2022/04/08 08:57:19;;;;;;;;;;;;;;;15.01;100.00;97212.28;5111747;28;19931;-78
2022/04/08 08:59:47;;;;;;;;;;;;;;;14.59;100.00;97206.47;5089812;28;19931;-76
2022/04/08 09:02:18;;;;;;;;;;;;;;;13.90;100.00;97213.00;5072426;28;19974;-77
2022/04/08 09:04:45;;;;;;;;;;;;;;;13.92;100.00;97227.31;5039166;28;19963;-75
2022/04/08 09:07:25;;;;;;;;;;;;;;;13.96;100.00;97218.69;5091337;28;19924;-75
2022/04/08 09:09:53;;;;;;;;;;;;;;;14.54;100.00;97232.47;5090821;28;19924;-75
2022/04/08 09:12:22;;;;;;;;;;;;;;;14.53;100.00;97230.94;5091637;28;20138;-75
2022/04/08 09:14:50;;;;;;;;;;;;;;;14.59;100.00;97231.00;5090458;28;19928;-76
2022/04/08 09:17:18;;;;;;;;;;;;;;;13.43;100.00;97237.81;5090426;28;20345;-75
2022/04/08 09:19:48;;;;;;;;;;;;;;;12.13;100.00;97245.53;5091602;28;20031;-72
2022/04/08 09:22:16;;;;;;;;;;;;;;;11.37;100.00;97253.72;5056393;28;19963;-72
2022/04/08 09:24:44;;;;;;;;;;;;;;;11.59;100.00;97254.22;5090147;28;19924;-72
2022/04/08 09:27:11;;;;;;;;;;;;;;;12.32;100.00;97260.97;5073005;28;19927;-73
2022/04/08 09:29:42;;;;;;;;;;;;;;;12.92;100.00;97259.84;5078398;28;20486;-74
2022/04/08 09:32:29;;;;;;;;;;;;;;;13.02;100.00;97252.91;5089736;28;19924;-78
2022/04/08 09:34:57;;;;;;;;;;;;;;;12.58;100.00;97253.59;5091430;28;19952;-73
2022/04/08 09:37:26;;;;;;;;;;;;;;;12.15;100.00;97259.84;5075034;28;20023;-75
2022/04/08 09:40:00;;;;;;;;;;;;;;;11.17;100.00;97269.44;5071734;28;19924;-77
2022/04/08 09:42:44;;;;;;;;;;;;;;;11.73;100.00;97272.38;5090582;28;19924;-74
2022/04/08 09:45:13;;;;;;;;;;;;;;;11.86;100.00;97281.34;5071799;28;19989;-75
2022/04/08 09:47:40;;;;;;;;;;;;;;;12.03;100.00;97285.25;5090346;28;19928;-73
2022/04/08 09:50:11;;;;;;;;;;;;;;;11.53;100.00;97275.69;5089739;28;19924;-75
2022/04/08 09:52:39;;;;;;;;;;;;;;;11.86;100.00;97284.13;5088880;28;19924;-77
2022/04/08 09:55:07;;;;;;;;;;;;;;;11.69;100.00;97277.38;5106351;28;19924;-75
2022/04/08 09:57:38;;;;;;;;;;;;;;;11.80;100.00;97286.78;5092870;28;19928;-80
2022/04/08 10:00:06;;;;;;;;;;;;;;;11.68;100.00;97290.56;5076303;28;19924;-79
2022/04/08 10:02:35;;;;;;;;;;;;;;;10.84;100.00;97298.06;5059566;28;19931;-81
2022/04/08 10:05:06;;;;;;;;;;;;;;;11.30;100.00;97279.19;5076224;28;19924;-85
2022/04/08 10:07:34;;;;;;;;;;;;;;;10.74;100.00;97298.53;5043108;28;19924;-86
2022/04/08 10:10:06;;;;;;;;;;;;;;;10.80;100.00;97277.91;5076417;28;19951;-83
2022/04/08 10:12:52;;;;;;;;;;;;;;;11.12;100.00;97295.25;5059978;28;20359;-83
2022/04/08 10:15:26;;;;;;;;;;;;;;;11.16;100.00;97288.25;5076704;28;19924;-85
2022/04/08 10:18:00;;;;;;;;;;;;;;;11.25;100.00;97293.81;5058583;28;19931;-83
2022/04/08 10:20:28;;;;;;;;;;;;;;;11.42;100.00;97292.19;5042829;28;19961;-79
2022/04/08 10:23:09;;;;;;;;;;;;;;;11.06;100.00;97295.09;5059361;28;19931;-80
2022/04/08 10:25:36;;;;;;;;;;;;;;;11.76;100.00;97302.97;5059630;28;20367;-82
2022/04/08 10:28:03;;;;;;;;;;;;;;;11.28;100.00;97304.06;5076245;28;19946;-82
2022/04/08 10:30:33;;;;;;;;;;;;;;;11.45;100.00;97296.84;5092786;28;19928;-80
2022/04/08 10:33:01;;;;;;;;;;;;;;;11.13;100.00;97297.59;5093982;28;20019;-81
2022/04/08 10:35:28;;;;;;;;;;;;;;;11.56;100.00;97301.94;5042744;28;19924;-79
2022/04/08 10:37:56;;;;;;;;;;;;;;;11.35;100.00;97305.72;5093960;28;19931;-79
2022/04/08 10:40:33;;;;;;;;;;;;;;;11.42;100.00;97313.81;5074185;28;19967;-78
2022/04/08 10:43:02;;;;;;;;;;;;;;;11.63;100.00;97313.59;5068842;28;20313;-75
2022/04/08 10:45:30;;;;;;;;;;;;;;;11.02;100.00;97318.84;5085121;28;19931;-79
2022/04/08 10:48:01;;;;;;;;;;;;;;;10.76;100.00;97321.22;5068996;28;19928;-77
2022/04/08 10:50:30;;;;;;;;;;;;;;;10.81;100.00;97320.59;5068450;28;20024;-83
2022/04/08 10:53:04;;;;;;;;;;;;;;;11.10;100.00;97320.88;5051099;28;20437;-80
2022/04/08 10:55:31;;;;;;;;;;;;;;;10.74;100.00;97324.47;5069352;28;19932;-78
2022/04/08 10:57:59;;;;;;;;;;;;;;;11.16;100.00;97323.81;5069030;28;19955;-76
2022/04/08 11:00:26;;;;;;;;;;;;;;;11.84;100.00;97317.41;5068397;28;19928;-78
2022/04/08 11:02:55;;;;;;;;;;;;;;;12.31;100.00;97315.41;5071761;28;19925;-84
2022/04/08 11:05:22;;;;;;;;;;;;;;;12.33;100.00;97321.31;5054854;28;19932;-84
2022/04/08 11:07:53;;;;;;;;;;;;;;;12.17;100.00;97321.75;5072823;28;19984;-81
2022/04/08 11:10:21;;;;;;;;;;;;;;;12.00;100.00;97323.38;5072114;28;20019;-81
2022/04/08 11:12:49;;;;;;;;;;;;;;;11.96;100.00;97322.00;5055525;28;20020;-80
2022/04/08 11:15:23;;;;;;;;;;;;;;;12.29;100.00;97323.53;5038780;28;19924;-82
2022/04/08 11:17:52;;;;;;;;;;;;;;;12.29;100.00;97322.75;5039251;28;20015;-79
2022/04/08 11:20:21;;;;;;;;;;;;;;;11.70;100.00;97327.25;5088372;28;20391;-79
2022/04/08 11:22:49;;;;;;;;;;;;;;;11.27;100.00;97324.84;5073085;28;19925;-79
2022/04/08 11:25:26;;;;;;;;;;;;;;;11.60;100.00;97336.13;5055254;28;19924;-79
2022/04/08 11:28:12;;;;;;;;;;;;;;;11.78;100.00;97336.09;5087759;28;19931;-79
2022/04/08 11:30:39;;;;;;;;;;;;;;;11.54;100.00;97335.97;5073294;28;20026;-78
2022/04/08 11:33:16;;;;;;;;;;;;;;;12.23;100.00;97339.44;5072909;28;19946;-79
2022/04/08 11:35:44;;;;;;;;;;;;;;;12.70;100.00;97333.81;5072755;28;19932;-79
2022/04/08 11:38:12;;;;;;;;;;;;;;;11.57;100.00;97340.63;5078475;28;19928;-78
2022/04/08 11:40:41;;;;;;;;;;;;;;;11.46;100.00;97359.16;5086393;28;20287;-80
2022/04/08 11:43:11;;;;;;;;;;;;;;;11.38;100.00;97358.69;5094133;28;19931;-80
2022/04/08 11:45:39;;;;;;;;;;;;;;;10.92;100.00;97355.19;5076359;28;20386;-79
2022/04/08 11:48:06;;;;;;;;;;;;;;;10.93;100.00;97367.16;5057365;28;20552;-77
2022/04/08 11:50:36;;;;;;;;;;;;;;;10.01;100.00;97375.81;5090310;28;19934;-78
2022/04/08 11:53:03;;;;;;;;;;;;;;;10.58;100.00;97379.84;5072390;28;19924;-79
2022/04/08 11:55:30;;;;;;;;;;;;;;;10.71;100.00;97374.88;5056709;28;19924;-79
2022/04/08 11:57:58;;;;;;;;;;;;;;;11.17;100.00;97359.69;5091327;28;20023;-80
2022/04/08 12:00:27;;;;;;;;;;;;;;;11.84;100.00;97354.56;5086074;28;19928;-80
2022/04/08 12:02:58;;;;;;;;;;;;;;;11.26;100.00;97364.47;5090263;28;19924;-79
2022/04/08 12:05:27;;;;;;;;;;;;;;;11.71;100.00;97356.78;5075265;28;19924;-79
2022/04/08 12:08:04;;;;;;;;;;;;;;;11.65;100.00;97360.66;5085035;28;20011;-82
2022/04/08 12:10:33;;;;;;;;;;;;;;;11.55;100.00;97359.91;5072364;28;19928;-84
2022/04/08 12:13:11;;;;;;;;;;;;;;;12.14;100.00;97353.47;5055976;28;19928;-84
2022/04/08 12:15:42;;;;;;;;;;;;;;;12.58;100.00;97343.25;5056422;28;19924;-83
2022/04/08 12:18:10;;;;;;;;;;;;;;;12.61;100.00;97350.69;5073274;28;19928;-83
2022/04/08 12:20:38;;;;;;;;;;;;;;;12.44;100.00;97343.97;5090491;28;20002;-79
2022/04/08 12:23:05;;;;;;;;;;;;;;;12.83;100.00;97361.56;5090463;28;19954;-84
2022/04/08 12:25:32;;;;;;;;;;;;;;;12.84;100.00;97345.53;5100536;28;19997;-84
2022/04/08 12:28:00;;;;;;;;;;;;;;;12.44;100.00;97357.97;5081878;28;19931;-82
2022/04/08 12:30:35;;;;;;;;;;;;;;;11.59;100.00;97368.91;5065090;28;19924;-82
2022/04/08 12:33:02;;;;;;;;;;;;;;;11.32;100.00;97360.59;5076721;28;19939;-81
2022/04/08 12:35:29;;;;;;;;;;;;;;;12.05;100.00;97359.13;5073024;28;19924;-80
2022/04/08 12:37:59;;;;;;;;;;;;;;;11.45;100.00;97352.78;5090716;28;19935;-81
2022/04/08 12:40:26;;;;;;;;;;;;;;;11.75;100.00;97354.59;5074546;28;19981;-82
2022/04/08 12:42:53;;;;;;;;;;;;;;;11.16;100.00;97372.09;5059994;28;19924;-81
2022/04/08 12:45:20;;;;;;;;;;;;;;;11.38;100.00;97377.50;5112829;28;20295;-81
2022/04/08 12:47:48;;;;;;;;;;;;;;;10.96;100.00;97382.97;5096629;28;19923;-81
2022/04/08 12:50:15;;;;;;;;;;;;;;;10.46;100.00;97383.56;5094118;28;19932;-78